Strona główna
METAR-TAF:

METAR-TAF

Lotnisko :

Port lotniczy Belo Horizonte

Belo Horizonte, Minas Gerais, Brazylia

Szerokość geograficzna: 19-56S, Długość geograficzna: 043-56W, wysokość: 850 m

Aktualna obserwacja pogody

Raport powstał 33 minut temu, godzina 23:00 UTC
Wiatr 7 kt od wschodnio-północny wschód
Temperatura 18°C
Wilgotność 45%
Ciśnienie 1022 hPa
Widzialność 10 km lub więcej
Brak chmur poniżej 1500 m i brak chmur cumulonimbus

METAR: SBCF 172300Z 07007KT CAVOK 18/06 Q1022

czas: 20:33 (23:33 UTC)

Prognoza

Raport powstał 7 godziny i 33 minut temu, godzina 16:00 UTC
Prognoza ważna od 17 godzina 18 UTC do 18 godzina 18 UTC
Wiatr 10 kt od wschód
Widzialność 10 km lub więcej
Brak chmur poniżej 1500 m i brak chmur cumulonimbus

TAF: SBCF 171600Z 1718/1818 08010KT CAVOK TX23/1718Z TN11/1808Z RMK PAZ

Obserwacja i prognoza pogody dla ponad 4000 lotnisk (raport METAR i TAF).

Dostępne stacje oznaczono żółtymi i czerwonymi punktami na mapie.

Najedź kursorem aby zobaczyć nazwę stacji.

Kliknij aby zobaczyć obserwacje i prognozy pogody.

Aby zmienić mapę: kliknij na zielony przycisk z czarnym krzyżykiem, aby powiększyć; na zielony przycisk z myślnikiem, aby pomniejszyć; na zielone strzałki, aby przejść do map sąsiednich.


METAR-TAF: